Time,TemperatureF,DewpointF,PressureIn,WindDirection,WindDirectionDegrees,WindSpeedMPH,WindSpeedGustMPH,Humidity,HourlyPrecipIn,Conditions,Clouds,dailyrainin,SoftwareType,DateUTC
2013-07-19 00:01:00,70.0,51.0,-100.00,SSE,153,10.0,15.0,51,0.00,,,0.00,,2013-07-19 06:01:00,
2013-07-19 00:11:00,70.0,51.0,-100.00,SSE,153,10.0,15.0,51,0.00,,,0.00,,2013-07-19 06:11:00,
2013-07-19 00:22:00,70.0,51.0,-100.00,SSE,153,10.0,15.0,51,0.00,,,0.00,,2013-07-19 06:22:00,
2013-07-19 00:32:00,70.0,51.0,-100.00,SSE,153,10.0,15.0,51,0.00,,,0.00,,2013-07-19 06:32:00,
2013-07-19 01:01:00,67.0,52.0,-100.00,South,182,7.0,15.0,58,0.00,,,0.00,,2013-07-19 07:01:00,
2013-07-19 01:12:00,67.0,52.0,-100.00,South,182,7.0,15.0,58,0.00,,,0.00,,2013-07-19 07:12:00,
2013-07-19 01:22:00,67.0,52.0,-100.00,South,182,7.0,15.0,58,0.00,,,0.00,,2013-07-19 07:22:00,
2013-07-19 01:32:00,67.0,52.0,-100.00,South,182,7.0,15.0,58,0.00,,,0.00,,2013-07-19 07:32:00,
2013-07-19 02:01:00,64.0,50.0,-100.00,South,169,5.0,11.0,61,0.00,,,-99.99,,2013-07-19 08:01:00,
2013-07-19 02:11:00,64.0,50.0,-100.00,South,169,5.0,11.0,61,0.00,,,-99.99,,2013-07-19 08:11:00,
2013-07-19 02:22:00,64.0,50.0,-100.00,South,169,5.0,11.0,61,0.00,,,-99.99,,2013-07-19 08:22:00,
2013-07-19 02:32:00,64.0,50.0,-100.00,South,169,5.0,11.0,61,0.00,,,-99.99,,2013-07-19 08:32:00,
2013-07-19 03:02:00,63.0,50.0,-100.00,South,171,4.0,7.0,62,0.00,,,-99.99,,2013-07-19 09:02:00,
2013-07-19 03:11:00,63.0,50.0,-100.00,South,171,4.0,7.0,62,0.00,,,-99.99,,2013-07-19 09:11:00,
2013-07-19 03:22:00,63.0,50.0,-100.00,South,171,4.0,7.0,62,0.00,,,-99.99,,2013-07-19 09:22:00,
2013-07-19 03:32:00,63.0,50.0,-100.00,South,171,4.0,7.0,62,0.00,,,-99.99,,2013-07-19 09:32:00,
2013-07-19 04:01:00,62.0,48.0,-100.00,SW,216,6.0,9.0,61,0.00,,,0.00,,2013-07-19 10:01:00,
2013-07-19 04:11:00,62.0,48.0,-100.00,SW,216,6.0,9.0,61,0.00,,,0.00,,2013-07-19 10:11:00,
2013-07-19 04:22:00,62.0,48.0,-100.00,SW,216,6.0,9.0,61,0.00,,,0.00,,2013-07-19 10:22:00,
2013-07-19 04:32:00,62.0,48.0,-100.00,SW,216,6.0,9.0,61,0.00,,,0.00,,2013-07-19 10:32:00,
2013-07-19 04:52:00,62.0,47.0,-100.00,SW,235,6.0,-999.0,59,0.00,,,0.00,,2013-07-19 10:52:00,
2013-07-19 05:02:00,62.0,47.0,-100.00,SW,235,6.0,-999.0,59,0.00,,,0.00,,2013-07-19 11:02:00,
2013-07-19 05:12:00,62.0,47.0,-100.00,SW,235,6.0,-999.0,59,0.00,,,0.00,,2013-07-19 11:12:00,
2013-07-19 05:22:00,62.0,47.0,-100.00,SW,235,6.0,-999.0,59,0.00,,,0.00,,2013-07-19 11:22:00,
2013-07-19 05:33:00,62.0,47.0,-100.00,SW,235,6.0,-999.0,59,0.00,,,0.00,,2013-07-19 11:33:00,
2013-07-19 07:02:00,61.0,48.0,-100.00,SW,236,6.0,10.0,62,-99.99,,,0.00,,2013-07-19 13:02:00,
2013-07-19 07:12:00,61.0,48.0,-100.00,SW,236,6.0,10.0,62,-99.99,,,0.00,,2013-07-19 13:12:00,
2013-07-19 07:22:00,61.0,48.0,-100.00,SW,236,6.0,10.0,62,-99.99,,,0.00,,2013-07-19 13:22:00,
2013-07-19 07:32:00,61.0,48.0,-100.00,SW,236,6.0,10.0,62,-99.99,,,0.00,,2013-07-19 13:32:00,
2013-07-19 08:02:00,67.0,50.0,-100.00,SW,232,5.0,10.0,54,0.00,,,0.00,,2013-07-19 14:02:00,
2013-07-19 08:11:00,67.0,50.0,-100.00,SW,232,5.0,10.0,54,0.00,,,0.00,,2013-07-19 14:11:00,
2013-07-19 08:22:00,67.0,50.0,-100.00,SW,232,5.0,10.0,54,0.00,,,0.00,,2013-07-19 14:22:00,
2013-07-19 08:33:00,67.0,50.0,-100.00,SW,232,5.0,10.0,54,0.00,,,0.00,,2013-07-19 14:33:00,
2013-07-19 09:02:00,73.0,51.0,-100.00,WSW,250,7.0,12.0,46,0.00,,,0.00,,2013-07-19 15:02:00,
2013-07-19 09:11:00,73.0,51.0,-100.00,WSW,250,7.0,12.0,46,0.00,,,0.00,,2013-07-19 15:11:00,
2013-07-19 09:22:00,73.0,51.0,-100.00,WSW,250,7.0,12.0,46,0.00,,,0.00,,2013-07-19 15:22:00,
2013-07-19 09:32:00,73.0,51.0,-100.00,WSW,250,7.0,12.0,46,0.00,,,0.00,,2013-07-19 15:32:00,
2013-07-19 10:01:00,75.0,50.0,-100.00,West,268,6.0,13.0,41,0.00,,,-99.99,,2013-07-19 16:01:00,
2013-07-19 10:11:00,75.0,50.0,-100.00,West,268,6.0,13.0,41,0.00,,,-99.99,,2013-07-19 16:11:00,
2013-07-19 10:22:00,75.0,50.0,-100.00,West,268,6.0,13.0,41,0.00,,,-99.99,,2013-07-19 16:22:00,
2013-07-19 10:32:00,75.0,50.0,-100.00,West,268,6.0,13.0,41,0.00,,,-99.99,,2013-07-19 16:32:00,
2013-07-19 10:53:00,76.0,51.0,-100.00,WSW,255,5.0,11.0,42,0.00,,,0.00,,2013-07-19 16:53:00,
2013-07-19 11:02:00,76.0,51.0,-100.00,WSW,255,5.0,11.0,42,0.00,,,0.00,,2013-07-19 17:02:00,
2013-07-19 11:12:00,76.0,51.0,-100.00,WSW,255,5.0,11.0,42,0.00,,,0.00,,2013-07-19 17:12:00,
2013-07-19 11:22:00,76.0,51.0,-100.00,WSW,255,5.0,11.0,42,0.00,,,0.00,,2013-07-19 17:22:00,
2013-07-19 11:32:00,76.0,51.0,-100.00,WSW,255,5.0,11.0,42,0.00,,,0.00,,2013-07-19 17:32:00,
2013-07-19 12:01:00,82.0,52.0,-100.00,West,275,5.0,11.0,35,0.00,,,0.00,,2013-07-19 18:01:00,
2013-07-19 12:11:00,82.0,52.0,-100.00,West,275,5.0,11.0,35,0.00,,,0.00,,2013-07-19 18:11:00,
2013-07-19 12:21:00,82.0,52.0,-100.00,West,275,5.0,11.0,35,0.00,,,0.00,,2013-07-19 18:21:00,
2013-07-19 12:32:00,82.0,52.0,-100.00,West,275,5.0,11.0,35,0.00,,,0.00,,2013-07-19 18:32:00,
2013-07-19 14:02:00,-999.0,-99.9,-100.00,North,-999,8.0,-999.0,-999,-99.99,,,0.00,,2013-07-19 20:02:00,
2013-07-19 14:11:00,-999.0,-99.9,-100.00,North,-999,8.0,-999.0,-999,-99.99,,,0.00,,2013-07-19 20:11:00,
2013-07-19 14:33:00,-999.0,-99.9,-100.00,North,-999,8.0,-999.0,-999,-99.99,,,0.00,,2013-07-19 20:33:00,
2013-07-19 15:11:00,83.0,48.0,-100.00,NE,49,5.0,13.0,30,0.00,,,0.00,,2013-07-19 21:11:00,
2013-07-19 15:22:00,83.0,48.0,-100.00,NE,49,5.0,13.0,30,0.00,,,0.00,,2013-07-19 21:22:00,
2013-07-19 15:32:00,83.0,48.0,-100.00,NE,49,5.0,13.0,30,0.00,,,0.00,,2013-07-19 21:32:00,
2013-07-19 16:01:00,72.0,52.0,-100.00,South,170,12.0,23.0,49,0.00,,,0.00,,2013-07-19 22:01:00,
2013-07-19 16:11:00,72.0,52.0,-100.00,South,170,12.0,23.0,49,0.00,,,0.00,,2013-07-19 22:11:00,
2013-07-19 16:21:00,72.0,52.0,-100.00,South,170,12.0,23.0,49,0.00,,,0.00,,2013-07-19 22:21:00,
2013-07-19 16:32:00,72.0,52.0,-100.00,South,170,12.0,23.0,49,0.00,,,0.00,,2013-07-19 22:32:00,
2013-07-19 17:01:00,73.0,50.0,-100.00,SSE,164,9.0,20.0,44,0.00,,,0.00,,2013-07-19 23:01:00,
2013-07-19 17:11:00,73.0,50.0,-100.00,SSE,164,9.0,20.0,44,0.00,,,0.00,,2013-07-19 23:11:00,
2013-07-19 17:21:00,73.0,50.0,-100.00,SSE,164,9.0,20.0,44,0.00,,,0.00,,2013-07-19 23:21:00,
2013-07-19 17:32:00,73.0,50.0,-100.00,SSE,164,9.0,20.0,44,0.00,,,0.00,,2013-07-19 23:32:00,
2013-07-19 18:01:00,75.0,50.0,-100.00,SSE,159,10.0,20.0,41,0.00,,,0.00,,2013-07-20 00:01:00,
2013-07-19 18:11:00,75.0,50.0,-100.00,SSE,159,10.0,20.0,41,0.00,,,0.00,,2013-07-20 00:11:00,
2013-07-19 18:22:00,75.0,50.0,-100.00,SSE,159,10.0,20.0,41,0.00,,,0.00,,2013-07-20 00:22:00,
2013-07-19 18:32:00,75.0,50.0,-100.00,SSE,159,10.0,20.0,41,0.00,,,0.00,,2013-07-20 00:32:00,
2013-07-19 19:01:00,74.0,49.0,-100.00,SSE,151,6.0,15.0,42,0.00,,,0.00,,2013-07-20 01:01:00,
2013-07-19 19:11:00,74.0,49.0,-100.00,SSE,151,6.0,15.0,42,0.00,,,0.00,,2013-07-20 01:11:00,
2013-07-19 19:22:00,74.0,49.0,-100.00,SSE,151,6.0,15.0,42,0.00,,,0.00,,2013-07-20 01:22:00,
2013-07-19 19:32:00,74.0,49.0,-100.00,SSE,151,6.0,15.0,42,0.00,,,0.00,,2013-07-20 01:32:00,
2013-07-19 20:02:00,73.0,50.0,-100.00,South,188,3.0,9.0,45,0.00,,,0.00,,2013-07-20 02:02:00,
2013-07-19 20:11:00,73.0,50.0,-100.00,South,188,3.0,9.0,45,0.00,,,0.00,,2013-07-20 02:11:00,
2013-07-19 20:22:00,73.0,50.0,-100.00,South,188,3.0,9.0,45,0.00,,,0.00,,2013-07-20 02:22:00,
2013-07-19 20:32:00,73.0,50.0,-100.00,South,188,3.0,9.0,45,0.00,,,0.00,,2013-07-20 02:32:00,
2013-07-19 21:02:00,72.0,50.0,-100.00,WNW,296,8.0,15.0,46,0.00,,,0.00,,2013-07-20 03:02:00,
2013-07-19 21:11:00,72.0,50.0,-100.00,WNW,296,8.0,15.0,46,0.00,,,0.00,,2013-07-20 03:11:00,
2013-07-19 21:22:00,72.0,50.0,-100.00,WNW,296,8.0,15.0,46,0.00,,,0.00,,2013-07-20 03:22:00,
2013-07-19 21:32:00,72.0,50.0,-100.00,WNW,296,8.0,15.0,46,0.00,,,0.00,,2013-07-20 03:32:00,
2013-07-19 22:02:00,69.0,51.0,-100.00,WNW,300,9.0,15.0,53,0.00,,,0.00,,2013-07-20 04:02:00,
2013-07-19 22:12:00,69.0,51.0,-100.00,WNW,300,9.0,15.0,53,0.00,,,0.00,,2013-07-20 04:12:00,
2013-07-19 22:22:00,69.0,51.0,-100.00,WNW,300,9.0,15.0,53,0.00,,,0.00,,2013-07-20 04:22:00,
2013-07-19 22:33:00,69.0,51.0,-100.00,WNW,300,9.0,15.0,53,0.00,,,0.00,,2013-07-20 04:33:00,
2013-07-19 23:02:00,65.0,51.0,-100.00,NW,322,6.0,14.0,61,0.00,,,0.00,,2013-07-20 05:02:00,
2013-07-19 23:12:00,65.0,51.0,-100.00,NW,322,6.0,14.0,61,0.00,,,0.00,,2013-07-20 05:12:00,
2013-07-19 23:22:00,65.0,51.0,-100.00,NW,322,6.0,14.0,61,0.00,,,0.00,,2013-07-20 05:22:00,
2013-07-19 23:32:00,65.0,51.0,-100.00,NW,322,6.0,14.0,61,0.00,,,0.00,,2013-07-20 05:32:00,